Terminal Aerodrome Forecast
Issued by NWS

Home | Current Version | Previous Version | Text Only | Print | Product List | Glossary On
Versions: 1 2 3 4 5 6 7 8 9 10 11 12 13 14 15 16 17 18 19 20 21 22
537
FTAK31 PAJN 262023 AAA
TAFAYA
TAF AMD
PAYA 262023Z 2620/2718 10003KT P6SM SCT015 OVC070
     FM270400 24005KT 6SM -RA BR SCT007 OVC014
      AMD LTD TO CLD VIS AND WIND=

USA.gov is the U.S. government's official web portal to all federal, state and local government web resources and services.